Time;durP1;ratioP1;P1;durP2;ratioP2;P2;SDS_P1;SDS_P2;PMS_P1;PMS_P2;Temp;Humidity;BMP_temperature;BMP_pressure;BME280_temperature;BME280_humidity;BME280_pressure;Samples;Min_cycle;Max_cycle;Signal;HPM_P1;HPM_P2
2021/01/25 00:00:12;;;;;;;33.80;16.53;;;;;;;;;;4377657;32;20218;-81
2021/01/25 00:02:37;;;;;;;34.67;17.50;;;;;;;;;;4391241;32;20154;-81
2021/01/25 00:05:06;;;;;;;32.53;16.40;;;;;;;;;;4392447;32;20174;-80
2021/01/25 00:07:32;;;;;;;28.87;15.67;;;;;;;;;;4392477;32;20158;-80
2021/01/25 00:10:00;;;;;;;32.03;16.37;;;;;;;;;;4406164;32;20152;-80
2021/01/25 00:12:44;;;;;;;32.53;17.73;;;;;;;;;;4392542;32;20173;-80
2021/01/25 00:18:26;;;;;;;35.80;18.03;;;;;;;;;;4359094;32;20171;-79
2021/01/25 00:20:54;;;;;;;33.93;17.37;;;;;;;;;;4392508;32;20189;-79
2021/01/25 00:23:19;;;;;;;35.63;17.87;;;;;;;;;;4392438;32;20176;-79
2021/01/25 00:25:45;;;;;;;35.70;18.10;;;;;;;;;;4392158;32;20163;-79
2021/01/25 00:28:10;;;;;;;32.13;17.23;;;;;;;;;;4392266;32;20238;-79
2021/01/25 00:30:35;;;;;;;36.40;18.43;;;;;;;;;;4379526;32;20162;-81
2021/01/25 00:33:01;;;;;;;38.80;18.97;;;;;;;;;;4392462;32;20193;-79
2021/01/25 00:35:26;;;;;;;38.73;19.77;;;;;;;;;;4392737;32;20162;-79
2021/01/25 00:37:54;;;;;;;36.13;18.73;;;;;;;;;;4405902;32;20212;-78
2021/01/25 00:40:19;;;;;;;39.43;18.63;;;;;;;;;;4392180;32;20158;-78
2021/01/25 00:42:45;;;;;;;38.63;19.43;;;;;;;;;;4392115;32;20157;-78
2021/01/25 00:45:11;;;;;;;38.70;19.17;;;;;;;;;;4392053;32;20193;-78
2021/01/25 00:47:41;;;;;;;36.97;19.17;;;;;;;;;;4392132;32;20596;-78
2021/01/25 00:50:23;;;;;;;38.07;18.20;;;;;;;;;;4405655;32;20150;-77
2021/01/25 00:52:48;;;;;;;46.43;20.57;;;;;;;;;;4389913;32;20595;-77
2021/01/25 00:55:16;;;;;;;39.33;17.33;;;;;;;;;;4392288;32;20256;-77
2021/01/25 00:57:45;;;;;;;41.90;21.17;;;;;;;;;;4391915;32;20538;-77
2021/01/25 01:00:14;;;;;;;35.77;17.23;;;;;;;;;;4391772;32;20279;-77
2021/01/25 01:02:40;;;;;;;39.60;19.20;;;;;;;;;;4391911;32;20494;-77
2021/01/25 01:05:05;;;;;;;37.60;19.13;;;;;;;;;;4376767;32;20189;-77
2021/01/25 01:07:43;;;;;;;35.60;18.67;;;;;;;;;;4376072;32;20327;-77
2021/01/25 01:10:09;;;;;;;37.33;18.53;;;;;;;;;;4391271;32;20421;-77
2021/01/25 01:12:45;;;;;;;38.37;18.23;;;;;;;;;;4376747;32;20189;-76
2021/01/25 01:20:56;;;;;;;;;;;;;;;;;;;;;
2021/01/25 01:23:40;;;;;;;36.77;17.47;;;;;;;;;;4386622;32;20184;-77
2021/01/25 01:26:37;;;;;;;35.30;17.57;;;;;;;;;;4376874;32;20154;-77
2021/01/25 01:29:33;;;;;;;32.23;15.90;;;;;;;;;;4386552;32;20158;-77
2021/01/25 01:31:58;;;;;;;36.43;17.67;;;;;;;;;;4376137;32;20157;-76
2021/01/25 01:34:24;;;;;;;35.67;18.37;;;;;;;;;;4376183;32;20644;-76
2021/01/25 01:36:52;;;;;;;33.07;17.30;;;;;;;;;;4376310;32;20657;-76
2021/01/25 01:39:23;;;;;;;35.40;18.07;;;;;;;;;;4376176;32;20158;-76
2021/01/25 01:42:01;;;;;;;;;;;;;;;;;;;;;
2021/01/25 01:44:27;;;;;;;30.60;17.10;;;;;;;;;;4367728;32;20154;-76
2021/01/25 01:46:53;;;;;;;33.03;15.87;;;;;;;;;;4375895;32;20181;-76
2021/01/25 01:49:21;;;;;;;30.77;17.60;;;;;;;;;;4375945;32;20154;-76
2021/01/25 01:52:04;;;;;;;30.50;16.87;;;;;;;;;;4372418;32;20603;-76
2021/01/25 01:54:30;;;;;;;32.17;16.97;;;;;;;;;;4360064;32;20162;-76
2021/01/25 01:57:01;;;;;;;30.93;16.50;;;;;;;;;;4360114;32;20162;-76
2021/01/25 01:59:36;;;;;;;32.67;17.00;;;;;;;;;;4360158;32;20154;-76
2021/01/25 02:02:01;;;;;;;34.97;17.07;;;;;;;;;;4360616;32;20220;-76
2021/01/25 02:04:29;;;;;;;32.20;17.77;;;;;;;;;;4359835;32;20181;-76
2021/01/25 02:06:55;;;;;;;34.00;17.37;;;;;;;;;;4360166;32;20189;-76
2021/01/25 02:09:24;;;;;;;33.53;16.63;;;;;;;;;;4359560;32;20211;-76
2021/01/25 02:11:52;;;;;;;34.47;17.53;;;;;;;;;;4372716;32;20154;-76
2021/01/25 02:14:18;;;;;;;31.03;16.00;;;;;;;;;;4360459;32;20159;-76
2021/01/25 02:16:44;;;;;;;31.50;18.10;;;;;;;;;;4359812;32;20249;-76
2021/01/25 02:19:11;;;;;;;32.07;16.73;;;;;;;;;;4359884;32;20170;-76
2021/01/25 02:21:39;;;;;;;29.43;16.37;;;;;;;;;;4359994;32;20167;-76
2021/01/25 02:24:24;;;;;;;33.60;16.47;;;;;;;;;;4375983;32;20241;-76
2021/01/25 02:27:07;;;;;;;30.13;16.07;;;;;;;;;;4375736;32;20166;-76
2021/01/25 02:29:35;;;;;;;29.63;15.83;;;;;;;;;;4375985;32;20158;-76
2021/01/25 02:32:01;;;;;;;32.17;16.67;;;;;;;;;;4376076;32;20237;-76
2021/01/25 02:34:29;;;;;;;34.13;16.07;;;;;;;;;;4375888;32;20185;-76
2021/01/25 02:36:55;;;;;;;30.97;14.80;;;;;;;;;;4375954;32;20170;-76
2021/01/25 02:39:23;;;;;;;32.07;15.83;;;;;;;;;;4375958;32;20185;-76
2021/01/25 02:41:48;;;;;;;30.70;16.23;;;;;;;;;;4375626;32;20212;-76
2021/01/25 02:44:14;;;;;;;27.43;15.00;;;;;;;;;;4375640;32;20158;-76
2021/01/25 02:46:39;;;;;;;27.70;15.10;;;;;;;;;;4375460;32;20219;-76
2021/01/25 02:49:12;;;;;;;26.10;14.37;;;;;;;;;;4375500;32;20159;-77
2021/01/25 02:51:37;;;;;;;26.17;13.93;;;;;;;;;;4375751;32;20301;-76
2021/01/25 02:54:03;;;;;;;26.37;14.27;;;;;;;;;;4375871;32;20157;-76
2021/01/25 02:56:31;;;;;;;30.07;14.70;;;;;;;;;;4386647;32;20216;-77
2021/01/25 02:58:56;;;;;;;27.93;13.63;;;;;;;;;;4405021;32;20162;-76
2021/01/25 03:01:26;;;;;;;25.77;14.20;;;;;;;;;;4390449;32;20154;-76
2021/01/25 03:03:52;;;;;;;24.70;12.97;;;;;;;;;;4403985;32;20162;-76
2021/01/25 03:06:19;;;;;;;21.63;12.27;;;;;;;;;;4391121;32;20190;-76
2021/01/25 03:08:45;;;;;;;22.60;12.03;;;;;;;;;;4391266;32;20154;-76
2021/01/25 03:11:10;;;;;;;23.97;12.83;;;;;;;;;;4390740;32;20292;-76
2021/01/25 03:13:36;;;;;;;22.93;13.27;;;;;;;;;;4390377;32;20162;-76
2021/01/25 03:16:01;;;;;;;23.97;14.20;;;;;;;;;;4390320;32;20189;-76
2021/01/25 03:18:29;;;;;;;23.57;13.73;;;;;;;;;;4390590;32;20188;-76
2021/01/25 03:20:57;;;;;;;27.87;14.77;;;;;;;;;;4390779;32;20211;-76
2021/01/25 03:23:22;;;;;;;30.90;16.37;;;;;;;;;;4392886;32;20160;-77
2021/01/25 03:25:50;;;;;;;29.03;15.97;;;;;;;;;;4393302;32;20520;-76
2021/01/25 03:28:19;;;;;;;29.97;16.33;;;;;;;;;;4378077;32;20162;-76
2021/01/25 03:30:44;;;;;;;31.73;16.17;;;;;;;;;;4377814;32;20216;-76
2021/01/25 03:33:33;;;;;;;28.70;16.23;;;;;;;;;;4378101;32;20169;-76
2021/01/25 03:35:57;;;;;;;25.17;14.50;;;;;;;;;;4394288;32;20170;-76
2021/01/25 03:38:23;;;;;;;31.43;16.90;;;;;;;;;;4391656;32;20161;-76
2021/01/25 03:40:48;;;;;;;31.83;16.33;;;;;;;;;;4377626;32;20607;-76
2021/01/25 03:43:14;;;;;;;34.17;16.60;;;;;;;;;;4377601;32;20170;-76
2021/01/25 03:45:42;;;;;;;29.20;15.23;;;;;;;;;;4387287;32;20225;-76
2021/01/25 03:48:08;;;;;;;30.53;16.17;;;;;;;;;;4392926;32;20166;-77
2021/01/25 03:50:34;;;;;;;27.60;15.80;;;;;;;;;;4393106;32;20181;-76
2021/01/25 03:53:00;;;;;;;29.47;15.40;;;;;;;;;;4392933;32;20154;-76
2021/01/25 03:55:25;;;;;;;32.03;15.60;;;;;;;;;;4392894;32;20193;-76
2021/01/25 03:57:53;;;;;;;27.63;15.20;;;;;;;;;;4406819;32;20166;-77
2021/01/25 04:00:20;;;;;;;33.33;16.53;;;;;;;;;;4392963;32;20177;-77
2021/01/25 04:02:55;;;;;;;33.60;17.20;;;;;;;;;;4392476;32;20239;-77
2021/01/25 04:05:20;;;;;;;27.47;15.00;;;;;;;;;;4392030;32;20181;-76
2021/01/25 04:07:45;;;;;;;31.97;16.33;;;;;;;;;;4392597;32;20517;-77
2021/01/25 04:10:13;;;;;;;30.07;17.50;;;;;;;;;;4392406;32;20518;-76
2021/01/25 04:15:44;;;;;;;31.57;17.27;;;;;;;;;;4329777;33;20538;-76
2021/01/25 04:18:19;;;;;;;37.93;18.03;;;;;;;;;;4390525;32;20166;-76
2021/01/25 04:20:53;;;;;;;32.00;16.73;;;;;;;;;;4392206;32;20158;-75
2021/01/25 04:23:18;;;;;;;36.00;16.87;;;;;;;;;;4392472;32;20199;-76
2021/01/25 04:25:43;;;;;;;29.33;17.03;;;;;;;;;;4406736;32;20162;-76
2021/01/25 04:28:09;;;;;;;35.87;18.50;;;;;;;;;;4392519;32;20548;-77
2021/01/25 04:30:34;;;;;;;34.43;17.40;;;;;;;;;;4392116;32;20239;-76
2021/01/25 04:32:59;;;;;;;30.30;17.50;;;;;;;;;;4391747;32;20512;-76
2021/01/25 04:35:25;;;;;;;33.77;16.67;;;;;;;;;;4391281;32;20181;-76
2021/01/25 04:38:19;;;;;;;29.20;16.13;;;;;;;;;;4387715;32;20209;-77
2021/01/25 04:41:08;;;;;;;33.83;18.33;;;;;;;;;;4385512;32;20166;-76
2021/01/25 04:43:34;;;;;;;31.97;17.30;;;;;;;;;;4383715;32;20208;-75
2021/01/25 04:45:59;;;;;;;33.60;17.43;;;;;;;;;;4386257;32;20181;-76
2021/01/25 04:48:26;;;;;;;30.43;16.60;;;;;;;;;;4388843;32;20202;-76
2021/01/25 04:50:54;;;;;;;31.73;16.60;;;;;;;;;;4383432;32;20202;-76
2021/01/25 04:53:19;;;;;;;30.50;15.87;;;;;;;;;;4388220;32;20158;-76
2021/01/25 04:55:48;;;;;;;26.93;15.13;;;;;;;;;;4405726;32;20620;-76
2021/01/25 04:58:13;;;;;;;34.27;17.30;;;;;;;;;;4392209;32;20185;-76
2021/01/25 05:00:39;;;;;;;32.53;16.87;;;;;;;;;;4391584;32;20181;-78
2021/01/25 05:03:05;;;;;;;30.67;15.97;;;;;;;;;;4391748;32;20169;-77
2021/01/25 05:05:30;;;;;;;34.07;18.40;;;;;;;;;;4405687;32;20567;-78
2021/01/25 05:08:08;;;;;;;31.83;16.90;;;;;;;;;;4392099;32;20178;-78
2021/01/25 05:10:35;;;;;;;35.57;16.77;;;;;;;;;;4405344;32;20212;-77
2021/01/25 05:13:00;;;;;;;31.17;16.33;;;;;;;;;;4405490;32;20155;-77
2021/01/25 05:15:27;;;;;;;32.23;16.63;;;;;;;;;;4405343;32;20138;-78
2021/01/25 05:17:53;;;;;;;28.73;16.07;;;;;;;;;;4391576;32;20170;-78
2021/01/25 05:20:22;;;;;;;33.10;19.50;;;;;;;;;;4391438;32;20595;-78
2021/01/25 05:22:47;;;;;;;32.17;17.40;;;;;;;;;;4392032;32;20186;-78
2021/01/25 05:25:21;;;;;;;33.90;16.77;;;;;;;;;;4405108;32;20165;-78
2021/01/25 05:27:46;;;;;;;27.43;16.97;;;;;;;;;;4391590;32;20173;-78
2021/01/25 05:30:12;;;;;;;32.43;17.10;;;;;;;;;;4391371;32;20162;-78
2021/01/25 05:32:50;;;;;;;30.13;16.87;;;;;;;;;;4405547;32;20138;-78
2021/01/25 05:35:25;;;;;;;36.83;18.37;;;;;;;;;;4391306;32;20219;-78
2021/01/25 05:38:17;;;;;;;31.93;17.50;;;;;;;;;;4392004;32;20598;-78
2021/01/25 05:40:53;;;;;;;31.60;16.70;;;;;;;;;;4382352;32;20222;-78
2021/01/25 05:43:19;;;;;;;29.63;16.67;;;;;;;;;;4391532;32;20526;-78
2021/01/25 05:45:51;;;;;;;32.77;17.37;;;;;;;;;;4391132;32;20161;-78
2021/01/25 05:48:17;;;;;;;28.67;16.07;;;;;;;;;;4391342;32;20578;-78
2021/01/25 05:50:43;;;;;;;35.07;17.47;;;;;;;;;;4390855;32;20294;-78
2021/01/25 05:53:09;;;;;;;31.07;16.33;;;;;;;;;;4390984;32;20158;-78
2021/01/25 05:55:35;;;;;;;26.93;15.47;;;;;;;;;;4390850;32;20504;-78
2021/01/25 05:58:00;;;;;;;29.87;16.47;;;;;;;;;;4391498;32;20180;-78
2021/01/25 06:00:26;;;;;;;31.17;16.63;;;;;;;;;;4391287;32;20162;-78
2021/01/25 06:02:55;;;;;;;32.03;16.17;;;;;;;;;;4390962;32;20536;-78
2021/01/25 06:05:40;;;;;;;30.87;16.37;;;;;;;;;;4390924;32;20509;-78
2021/01/25 06:08:27;;;;;;;32.90;16.70;;;;;;;;;;4391205;32;20476;-77
2021/01/25 06:11:14;;;;;;;31.63;16.73;;;;;;;;;;4391290;32;20484;-77
2021/01/25 06:14:00;;;;;;;34.90;17.50;;;;;;;;;;4391332;32;20199;-79
2021/01/25 06:16:32;;;;;;;31.47;17.20;;;;;;;;;;4390231;32;20170;-78
2021/01/25 06:19:01;;;;;;;31.70;16.90;;;;;;;;;;4391057;32;20581;-78
2021/01/25 06:21:29;;;;;;;35.60;17.20;;;;;;;;;;4404792;32;20191;-79
2021/01/25 06:23:55;;;;;;;33.30;16.93;;;;;;;;;;4391193;32;20162;-78
2021/01/25 06:26:23;;;;;;;32.30;16.53;;;;;;;;;;4390836;32;20223;-79
2021/01/25 06:28:49;;;;;;;33.63;17.33;;;;;;;;;;4390637;32;20162;-79
2021/01/25 06:31:18;;;;;;;37.97;19.00;;;;;;;;;;4390970;32;20207;-78
2021/01/25 06:33:45;;;;;;;33.70;18.43;;;;;;;;;;4390699;32;20583;-77
2021/01/25 06:36:14;;;;;;;36.20;17.60;;;;;;;;;;4390714;32;20170;-79
2021/01/25 06:38:42;;;;;;;35.87;19.03;;;;;;;;;;4390359;32;20237;-78
2021/01/25 06:41:12;;;;;;;35.33;18.87;;;;;;;;;;4390568;32;20576;-78
2021/01/25 06:43:41;;;;;;;41.67;19.63;;;;;;;;;;4390796;32;20157;-79
2021/01/25 06:47:04;;;;;;;41.07;20.00;;;;;;;;;;4390490;32;20209;-77
2021/01/25 06:49:34;;;;;;;40.37;19.57;;;;;;;;;;4344874;32;20194;-78
2021/01/25 06:52:05;;;;;;;38.33;20.17;;;;;;;;;;4315714;33;20222;-78
2021/01/25 06:57:35;;;;;;;45.40;21.37;;;;;;;;;;4316047;33;20186;-79
2021/01/25 07:00:22;;;;;;;40.60;21.17;;;;;;;;;;4328864;33;20232;-78
2021/01/25 07:02:51;;;;;;;45.13;21.37;;;;;;;;;;4357577;32;20267;-79
2021/01/25 07:05:20;;;;;;;45.13;22.87;;;;;;;;;;4378031;32;20216;-79
2021/01/25 07:07:47;;;;;;;46.40;23.73;;;;;;;;;;4378365;32;20474;-79
2021/01/25 07:10:14;;;;;;;46.00;21.53;;;;;;;;;;4378238;32;20246;-79
2021/01/25 07:12:40;;;;;;;50.03;24.10;;;;;;;;;;4392320;32;20281;-79
2021/01/25 07:15:05;;;;;;;42.10;22.27;;;;;;;;;;4397888;32;20157;-78
2021/01/25 07:17:31;;;;;;;45.87;22.97;;;;;;;;;;4398282;32;20364;-77
2021/01/25 07:20:49;;;;;;;50.27;24.00;;;;;;;;;;4405293;32;20208;-79
2021/01/25 07:22:57;;;;;;;47.03;23.97;;;;;;;;;;4411495;32;20181;-78
2021/01/25 07:25:22;;;;;;;51.33;23.73;;;;;;;;;;4394507;32;20204;-78
2021/01/25 07:27:47;;;;;;;43.83;23.53;;;;;;;;;;4380887;32;20183;-77
2021/01/25 07:30:13;;;;;;;41.70;21.70;;;;;;;;;;4392892;32;20242;-79
2021/01/25 07:32:41;;;;;;;48.03;23.73;;;;;;;;;;4393287;32;20149;-80
2021/01/25 07:35:07;;;;;;;51.47;24.50;;;;;;;;;;4406061;32;20146;-79
2021/01/25 07:37:32;;;;;;;45.70;23.40;;;;;;;;;;4392737;32;20185;-78
2021/01/25 07:39:58;;;;;;;52.03;24.97;;;;;;;;;;4393375;32;20181;-79
2021/01/25 07:42:23;;;;;;;50.30;25.37;;;;;;;;;;4392730;32;20158;-79
2021/01/25 07:44:48;;;;;;;44.90;24.10;;;;;;;;;;4406263;32;20149;-78
2021/01/25 07:47:19;;;;;;;54.53;26.13;;;;;;;;;;4391238;32;20228;-77
2021/01/25 07:49:45;;;;;;;45.13;23.23;;;;;;;;;;4397039;32;20158;-78
2021/01/25 07:52:19;;;;;;;55.17;25.97;;;;;;;;;;4378688;32;20717;-79
2021/01/25 07:54:47;;;;;;;56.10;26.07;;;;;;;;;;4377731;32;20161;-78
2021/01/25 07:57:16;;;;;;;50.27;25.07;;;;;;;;;;4376869;32;20177;-78
2021/01/25 07:59:41;;;;;;;47.63;24.50;;;;;;;;;;4379859;32;20181;-77
2021/01/25 08:02:30;;;;;;;49.33;25.20;;;;;;;;;;4392737;32;20258;-76
2021/01/25 08:05:12;;;;;;;52.20;26.40;;;;;;;;;;4400957;32;20239;-77
2021/01/25 08:07:41;;;;;;;52.43;25.90;;;;;;;;;;4406299;32;20600;-77
2021/01/25 08:10:12;;;;;;;54.47;26.10;;;;;;;;;;4406729;32;20154;-77
2021/01/25 08:12:37;;;;;;;51.67;26.37;;;;;;;;;;4407205;32;20214;-77
2021/01/25 08:15:06;;;;;;;53.23;25.90;;;;;;;;;;4407378;32;20165;-77
2021/01/25 08:17:38;;;;;;;52.27;26.03;;;;;;;;;;4391166;32;20162;-77
2021/01/25 08:20:09;;;;;;;53.00;27.27;;;;;;;;;;4414393;32;20138;-77
2021/01/25 08:22:40;;;;;;;49.47;26.33;;;;;;;;;;4420770;32;20138;-76
2021/01/25 08:25:06;;;;;;;53.60;26.40;;;;;;;;;;4406732;32;20165;-78
2021/01/25 08:27:39;;;;;;;52.93;26.57;;;;;;;;;;4406555;32;20162;-77
2021/01/25 08:30:06;;;;;;;53.93;26.73;;;;;;;;;;4385054;32;20483;-77
2021/01/25 08:32:56;;;;;;;59.07;29.27;;;;;;;;;;4378270;32;20682;-76
2021/01/25 08:35:32;;;;;;;56.23;27.63;;;;;;;;;;4368786;32;20193;-78
2021/01/25 08:38:10;;;;;;;50.80;26.07;;;;;;;;;;4377408;32;20537;-75
2021/01/25 08:40:45;;;;;;;54.53;24.10;;;;;;;;;;4377298;32;20158;-77
2021/01/25 08:43:19;;;;;;;54.43;25.77;;;;;;;;;;4376690;32;20611;-77
2021/01/25 08:46:03;;;;;;;;;;;;;;;;;;;;;
2021/01/25 08:48:42;;;;;;;44.50;24.17;;;;;;;;;;4390584;32;20168;-79
2021/01/25 08:51:34;;;;;;;49.30;24.50;;;;;;;;;;4376956;32;20514;-77
2021/01/25 08:54:03;;;;;;;44.63;23.30;;;;;;;;;;4376170;32;20174;-78
2021/01/25 08:59:39;;;;;;;46.60;24.80;;;;;;;;;;4385962;32;20280;-78
2021/01/25 09:02:08;;;;;;;47.57;24.97;;;;;;;;;;4377950;32;20225;-77
2021/01/25 09:04:34;;;;;;;45.87;23.90;;;;;;;;;;4404872;32;20154;-77
2021/01/25 09:06:59;;;;;;;45.17;22.87;;;;;;;;;;4390999;32;20583;-76
2021/01/25 09:09:27;;;;;;;53.33;26.13;;;;;;;;;;4393734;32;20459;-77
2021/01/25 09:11:52;;;;;;;48.27;25.83;;;;;;;;;;4391834;32;20216;-77
2021/01/25 09:14:20;;;;;;;46.77;25.03;;;;;;;;;;4416469;32;20571;-77
2021/01/25 09:16:46;;;;;;;44.40;24.53;;;;;;;;;;4420110;32;20190;-78
2021/01/25 09:19:19;;;;;;;45.13;24.13;;;;;;;;;;4420505;32;20196;-78
2021/01/25 09:21:53;;;;;;;43.70;22.90;;;;;;;;;;4406187;32;20169;-78
2021/01/25 09:24:24;;;;;;;40.87;22.67;;;;;;;;;;4406810;32;20162;-78
2021/01/25 09:26:49;;;;;;;43.67;22.30;;;;;;;;;;4420339;32;20149;-78
2021/01/25 09:29:18;;;;;;;37.77;21.60;;;;;;;;;;4406265;32;20502;-78
2021/01/25 09:31:46;;;;;;;37.67;21.53;;;;;;;;;;4406064;32;20162;-78
2021/01/25 09:34:11;;;;;;;42.07;22.33;;;;;;;;;;4406595;32;20162;-78
2021/01/25 09:36:37;;;;;;;36.53;18.77;;;;;;;;;;4396841;32;20205;-77
2021/01/25 09:39:03;;;;;;;32.40;18.37;;;;;;;;;;4404619;32;20456;-77
2021/01/25 09:41:31;;;;;;;35.20;17.83;;;;;;;;;;4390758;32;20169;-78
2021/01/25 09:43:59;;;;;;;33.23;18.90;;;;;;;;;;4390870;32;20265;-77
2021/01/25 09:46:24;;;;;;;34.97;19.43;;;;;;;;;;4390774;32;20161;-78
2021/01/25 09:48:52;;;;;;;29.80;16.23;;;;;;;;;;4386644;32;20211;-78
2021/01/25 09:51:25;;;;;;;24.60;13.83;;;;;;;;;;4375916;32;20163;-78
2021/01/25 09:53:51;;;;;;;25.73;15.23;;;;;;;;;;4376554;32;20209;-79
2021/01/25 09:56:16;;;;;;;28.90;14.97;;;;;;;;;;4376079;32;20210;-79
2021/01/25 09:58:41;;;;;;;26.00;14.90;;;;;;;;;;4375788;32;20212;-79
2021/01/25 10:01:38;;;;;;;;;;;;;;;;;;;;;
2021/01/25 10:04:06;;;;;;;24.80;14.23;;;;;;;;;;4390550;32;20584;-80
2021/01/25 10:06:37;;;;;;;25.03;13.00;;;;;;;;;;4383996;32;20176;-80
2021/01/25 10:09:05;;;;;;;19.90;11.83;;;;;;;;;;4391677;32;20150;-80
2021/01/25 10:11:30;;;;;;;23.33;12.20;;;;;;;;;;4390609;32;20584;-77
2021/01/25 10:13:56;;;;;;;20.60;11.87;;;;;;;;;;4391491;32;20181;-78
2021/01/25 10:16:42;;;;;;;21.93;12.10;;;;;;;;;;4391189;32;20231;-78
2021/01/25 10:22:56;;;;;;;21.13;12.87;;;;;;;;;;4298696;33;20149;-78
2021/01/25 10:28:10;;;;;;;20.00;11.77;;;;;;;;;;4322386;33;20309;-78
2021/01/25 10:30:39;;;;;;;17.10;11.30;;;;;;;;;;4328834;33;20589;-78
2021/01/25 10:33:04;;;;;;;18.67;10.93;;;;;;;;;;4353473;32;20178;-78
2021/01/25 10:35:29;;;;;;;15.70;9.60;;;;;;;;;;4378479;32;20237;-79
2021/01/25 10:37:55;;;;;;;16.43;9.67;;;;;;;;;;4390624;32;20158;-79
2021/01/25 10:40:20;;;;;;;16.90;10.07;;;;;;;;;;4397367;32;20484;-78
2021/01/25 10:42:49;;;;;;;16.23;9.83;;;;;;;;;;4394105;32;20164;-78
2021/01/25 10:45:14;;;;;;;15.00;8.93;;;;;;;;;;4407001;32;20158;-78
2021/01/25 10:47:40;;;;;;;16.70;9.87;;;;;;;;;;4398075;32;20379;-80
2021/01/25 10:50:23;;;;;;;17.13;9.83;;;;;;;;;;4417881;32;20150;-79
2021/01/25 10:52:49;;;;;;;16.67;9.67;;;;;;;;;;4407407;32;20196;-78
2021/01/25 10:55:15;;;;;;;16.47;9.30;;;;;;;;;;4422868;32;20467;-78
2021/01/25 10:57:43;;;;;;;17.80;10.13;;;;;;;;;;4408736;32;20161;-78
2021/01/25 11:00:16;;;;;;;19.43;10.47;;;;;;;;;;4408574;32;20180;-79
2021/01/25 11:02:42;;;;;;;16.13;9.93;;;;;;;;;;4392891;32;20197;-80
2021/01/25 11:05:08;;;;;;;17.43;9.87;;;;;;;;;;4391492;32;20630;-79
2021/01/25 11:07:35;;;;;;;16.40;9.97;;;;;;;;;;4405355;32;20688;-80
2021/01/25 11:10:05;;;;;;;20.83;11.00;;;;;;;;;;4392187;32;20225;-79
2021/01/25 11:12:38;;;;;;;18.53;11.03;;;;;;;;;;4392936;32;20237;-78
2021/01/25 11:15:17;;;;;;;;;;;;;;;;;;;;;
2021/01/25 11:17:46;;;;;;;18.70;10.63;;;;;;;;;;4387578;32;20515;-79
2021/01/25 11:20:17;;;;;;;17.63;10.53;;;;;;;;;;4380332;32;20319;-79
2021/01/25 11:22:56;;;;;;;21.50;10.07;;;;;;;;;;4392889;32;20563;-79
2021/01/25 11:25:26;;;;;;;20.47;10.70;;;;;;;;;;4392802;32;20166;-78
2021/01/25 11:27:55;;;;;;;16.33;8.97;;;;;;;;;;4393442;32;20208;-78
2021/01/25 11:30:36;;;;;;;14.20;8.57;;;;;;;;;;4392300;32;20178;-81
2021/01/25 11:33:08;;;;;;;11.98;7.72;;;;;;;;;;4383868;32;20205;-80
2021/01/25 11:35:33;;;;;;;12.13;7.10;;;;;;;;;;4408270;32;20222;-80
2021/01/25 11:38:20;;;;;;;;;;;;;;;;;;;;;
2021/01/25 11:40:45;;;;;;;10.57;6.65;;;;;;;;;;4406304;32;20173;-79
2021/01/25 11:43:11;;;;;;;9.65;6.53;;;;;;;;;;4387645;32;20519;-80
2021/01/25 11:45:37;;;;;;;10.00;6.70;;;;;;;;;;4406611;32;20146;-78
2021/01/25 11:48:06;;;;;;;14.70;7.05;;;;;;;;;;4383730;32;20155;-78
2021/01/25 11:50:31;;;;;;;9.85;5.70;;;;;;;;;;4377106;32;20154;-80
2021/01/25 11:53:17;;;;;;;7.82;5.82;;;;;;;;;;4377548;32;20185;-81
2021/01/25 11:56:12;;;;;;;;;;;;;;;;;;;;;
2021/01/25 11:58:39;;;;;;;12.05;6.78;;;;;;;;;;4391265;32;20173;-81
2021/01/25 12:04:11;;;;;;;8.38;5.30;;;;;;;;;;4317974;32;20207;-82
2021/01/25 12:06:42;;;;;;;7.12;4.45;;;;;;;;;;4377695;32;20249;-81
2021/01/25 12:09:13;;;;;;;8.35;4.75;;;;;;;;;;4377755;32;20184;-81
2021/01/25 12:11:53;;;;;;;9.18;5.37;;;;;;;;;;4378144;32;20162;-81
2021/01/25 12:14:36;;;;;;;7.53;4.18;;;;;;;;;;4377710;32;20158;-81
2021/01/25 12:17:13;;;;;;;8.52;5.50;;;;;;;;;;4377583;32;20189;-81
2021/01/25 12:19:39;;;;;;;9.50;5.15;;;;;;;;;;4377783;32;20150;-80
2021/01/25 12:22:16;;;;;;;8.85;6.03;;;;;;;;;;4377233;32;20511;-81
2021/01/25 12:24:44;;;;;;;9.23;5.15;;;;;;;;;;4365009;32;20517;-81
2021/01/25 12:27:14;;;;;;;8.38;5.45;;;;;;;;;;4376589;32;20193;-82
2021/01/25 12:29:53;;;;;;;8.48;5.30;;;;;;;;;;4377422;32;20166;-81
2021/01/25 12:32:41;;;;;;;8.90;5.78;;;;;;;;;;4377100;32;20216;-82
2021/01/25 12:38:46;;;;;;;7.30;4.55;;;;;;;;;;4344110;33;20215;-81
2021/01/25 12:41:19;;;;;;;7.62;4.20;;;;;;;;;;4323655;33;20183;-81
2021/01/25 12:43:45;;;;;;;6.45;4.32;;;;;;;;;;4325946;33;20170;-83
2021/01/25 12:46:24;;;;;;;5.03;3.53;;;;;;;;;;4358481;32;20147;-81
2021/01/25 12:48:57;;;;;;;8.48;3.33;;;;;;;;;;4376932;32;20187;-82
2021/01/25 12:51:25;;;;;;;7.65;3.60;;;;;;;;;;4407109;32;20153;-81
2021/01/25 12:54:14;;;;;;;6.62;3.78;;;;;;;;;;4420506;32;20212;-82
2021/01/25 12:57:09;;;;;;;7.25;3.85;;;;;;;;;;4407145;32;20158;-81
2021/01/25 12:59:37;;;;;;;8.13;3.80;;;;;;;;;;4390981;32;20165;-80
2021/01/25 13:02:28;;;;;;;9.63;3.85;;;;;;;;;;4406703;32;20169;-82
2021/01/25 13:04:56;;;;;;;8.10;3.80;;;;;;;;;;4392107;32;20213;-82
2021/01/25 13:10:20;;;;;;;4.57;1.43;;;;;;;;;;4419963;32;20503;-81
2021/01/25 13:12:59;;;;;;;3.73;0.87;;;;;;;;;;4396237;32;20208;-80
2021/01/25 13:15:29;;;;;;;2.30;1.00;;;;;;;;;;4404601;32;20179;-81
2021/01/25 13:18:18;;;;;;;5.83;1.20;;;;;;;;;;4405333;32;20211;-81
2021/01/25 13:21:15;;;;;;;2.73;1.00;;;;;;;;;;4418144;32;20169;-81
2021/01/25 13:23:54;;;;;;;;;;;;;;;;;;;;;
2021/01/25 13:26:25;;;;;;;2.43;1.30;;;;;;;;;;4390296;32;20180;-81
2021/01/25 13:31:36;;;;;;;1.43;1.00;;;;;;;;;;4377844;32;20166;-81
2021/01/25 13:34:07;;;;;;;3.43;1.40;;;;;;;;;;4393186;32;20243;-81
2021/01/25 13:36:38;;;;;;;3.90;1.30;;;;;;;;;;4402746;32;20200;-81
2021/01/25 13:39:09;;;;;;;3.13;1.40;;;;;;;;;;4406744;32;20599;-80
2021/01/25 13:41:39;;;;;;;5.57;1.50;;;;;;;;;;4406299;32;20455;-82
2021/01/25 13:44:14;;;;;;;3.47;1.20;;;;;;;;;;4409520;32;20141;-82
2021/01/25 13:46:41;;;;;;;3.97;1.40;;;;;;;;;;4391271;32;20227;-82
2021/01/25 13:49:17;;;;;;;4.53;1.50;;;;;;;;;;4391269;32;20159;-82
2021/01/25 13:51:48;;;;;;;2.87;1.30;;;;;;;;;;4391292;32;20228;-81
2021/01/25 13:54:16;;;;;;;6.73;1.60;;;;;;;;;;4393309;32;20165;-81
2021/01/25 13:56:45;;;;;;;4.33;1.30;;;;;;;;;;4400922;32;20604;-82
2021/01/25 14:00:19;;;;;;;;;;;;;;;;;;;;;
2021/01/25 14:02:19;;;;;;;3.33;1.30;;;;;;;;;;4392217;32;20269;-82
2021/01/25 14:04:47;;;;;;;4.12;1.33;;;;;;;;;;4390918;32;20196;-82
2021/01/25 14:07:24;;;;;;;3.87;1.40;;;;;;;;;;4390591;32;20201;-81
2021/01/25 14:09:51;;;;;;;4.80;1.20;;;;;;;;;;4391103;32;20208;-81
2021/01/25 14:12:23;;;;;;;3.70;1.05;;;;;;;;;;4390611;32;20163;-81
2021/01/25 14:14:49;;;;;;;6.28;1.40;;;;;;;;;;4391331;32;20493;-81
2021/01/25 14:17:17;;;;;;;3.55;1.20;;;;;;;;;;4391130;32;20162;-82
2021/01/25 14:19:43;;;;;;;3.97;1.57;;;;;;;;;;4390739;32;20158;-80
2021/01/25 14:22:09;;;;;;;6.87;1.45;;;;;;;;;;4390697;32;20203;-81
2021/01/25 14:24:45;;;;;;;3.05;1.00;;;;;;;;;;4399891;32;20157;-81
2021/01/25 14:27:12;;;;;;;5.07;1.00;;;;;;;;;;4387540;32;20180;-81
2021/01/25 14:29:40;;;;;;;6.37;1.00;;;;;;;;;;4405692;32;20182;-81
2021/01/25 14:32:10;;;;;;;2.60;0.70;;;;;;;;;;4406583;32;20188;-81
2021/01/25 14:35:00;;;;;;;4.13;0.90;;;;;;;;;;4406026;32;20211;-81
2021/01/25 14:37:47;;;;;;;;;;;;;;;;;;;;;
2021/01/25 14:40:14;;;;;;;2.10;0.67;;;;;;;;;;4419493;32;20157;-82
2021/01/25 14:42:46;;;;;;;1.70;0.70;;;;;;;;;;4400890;32;20244;-81
2021/01/25 14:45:20;;;;;;;3.80;0.67;;;;;;;;;;4390503;32;20158;-82
2021/01/25 14:48:20;;;;;;;9.33;1.17;;;;;;;;;;4388018;32;20199;-81
2021/01/25 14:50:45;;;;;;;3.73;0.83;;;;;;;;;;4391049;32;20245;-82
2021/01/25 14:53:28;;;;;;;2.20;0.80;;;;;;;;;;4385552;32;20217;-81
2021/01/25 14:55:53;;;;;;;4.00;0.90;;;;;;;;;;4377260;32;20300;-81
2021/01/25 14:58:23;;;;;;;5.57;0.80;;;;;;;;;;4387000;32;20208;-82
2021/01/25 15:00:57;;;;;;;3.80;0.90;;;;;;;;;;4390200;32;20631;-82
2021/01/25 15:03:34;;;;;;;2.60;0.60;;;;;;;;;;4389313;32;20196;-82
2021/01/25 15:06:02;;;;;;;2.30;0.77;;;;;;;;;;4390365;32;20161;-81
2021/01/25 15:08:31;;;;;;;1.93;0.80;;;;;;;;;;4405096;32;20177;-81
2021/01/25 15:11:04;;;;;;;1.73;0.77;;;;;;;;;;4415408;32;20154;-81
2021/01/25 15:13:42;;;;;;;3.20;1.03;;;;;;;;;;4394181;32;20162;-81
2021/01/25 15:16:21;;;;;;;3.67;0.80;;;;;;;;;;4397817;32;20168;-81
2021/01/25 15:18:52;;;;;;;2.87;0.90;;;;;;;;;;4394429;32;20157;-82
2021/01/25 15:21:32;;;;;;;3.83;1.00;;;;;;;;;;4400707;32;20202;-81
2021/01/25 15:23:57;;;;;;;2.63;1.00;;;;;;;;;;4397330;32;20214;-81
2021/01/25 15:26:26;;;;;;;5.33;1.27;;;;;;;;;;4393896;32;20169;-80
2021/01/25 15:28:52;;;;;;;5.63;1.00;;;;;;;;;;4397590;32;20210;-81
2021/01/25 15:31:22;;;;;;;3.10;1.20;;;;;;;;;;4408194;32;20139;-80